sensor_id;sensor_type;location;lat;lon;timestamp;P1;durP1;ratioP1;P2;durP2;ratioP2
21266;SDS011;10791;53.108;18.326;2023-11-19T00:01:36;10.27;;;5.73;;
21266;SDS011;10791;53.108;18.326;2023-11-19T00:06:41;13.03;;;7.00;;
21266;SDS011;10791;53.108;18.326;2023-11-19T00:11:44;12.30;;;6.33;;
21266;SDS011;10791;53.108;18.326;2023-11-19T00:16:56;14.30;;;6.87;;
21266;SDS011;10791;53.108;18.326;2023-11-19T00:21:59;18.17;;;8.27;;
21266;SDS011;10791;53.108;18.326;2023-11-19T00:27:05;20.40;;;6.97;;
21266;SDS011;10791;53.108;18.326;2023-11-19T00:32:10;12.50;;;5.87;;
21266;SDS011;10791;53.108;18.326;2023-11-19T00:37:14;15.17;;;6.53;;
21266;SDS011;10791;53.108;18.326;2023-11-19T00:42:18;15.93;;;7.97;;
21266;SDS011;10791;53.108;18.326;2023-11-19T00:47:21;14.80;;;7.90;;
21266;SDS011;10791;53.108;18.326;2023-11-19T00:52:24;16.17;;;7.70;;
21266;SDS011;10791;53.108;18.326;2023-11-19T00:57:27;14.57;;;7.93;;
21266;SDS011;10791;53.108;18.326;2023-11-19T01:02:30;16.77;;;7.90;;
21266;SDS011;10791;53.108;18.326;2023-11-19T01:07:33;16.80;;;8.57;;
21266;SDS011;10791;53.108;18.326;2023-11-19T01:12:37;15.33;;;7.40;;
21266;SDS011;10791;53.108;18.326;2023-11-19T01:17:40;14.37;;;8.13;;
21266;SDS011;10791;53.108;18.326;2023-11-19T01:22:54;19.63;;;7.83;;
21266;SDS011;10791;53.108;18.326;2023-11-19T01:27:59;17.13;;;8.50;;
21266;SDS011;10791;53.108;18.326;2023-11-19T01:33:02;19.63;;;10.50;;
21266;SDS011;10791;53.108;18.326;2023-11-19T01:38:06;15.77;;;8.10;;
21266;SDS011;10791;53.108;18.326;2023-11-19T01:43:11;23.37;;;8.97;;
21266;SDS011;10791;53.108;18.326;2023-11-19T01:48:14;21.77;;;8.70;;
21266;SDS011;10791;53.108;18.326;2023-11-19T01:53:18;18.47;;;7.60;;
21266;SDS011;10791;53.108;18.326;2023-11-19T01:58:21;20.03;;;9.90;;
21266;SDS011;10791;53.108;18.326;2023-11-19T02:03:25;18.93;;;9.73;;
21266;SDS011;10791;53.108;18.326;2023-11-19T02:08:32;22.27;;;9.23;;
21266;SDS011;10791;53.108;18.326;2023-11-19T02:13:35;17.30;;;9.07;;
21266;SDS011;10791;53.108;18.326;2023-11-19T02:18:40;25.03;;;10.63;;
21266;SDS011;10791;53.108;18.326;2023-11-19T02:23:43;13.87;;;8.70;;
21266;SDS011;10791;53.108;18.326;2023-11-19T02:28:47;21.53;;;10.23;;
21266;SDS011;10791;53.108;18.326;2023-11-19T02:33:50;15.37;;;9.27;;
21266;SDS011;10791;53.108;18.326;2023-11-19T02:38:54;21.80;;;10.73;;
21266;SDS011;10791;53.108;18.326;2023-11-19T02:43:57;22.97;;;10.87;;
21266;SDS011;10791;53.108;18.326;2023-11-19T02:49:00;30.40;;;13.93;;
21266;SDS011;10791;53.108;18.326;2023-11-19T02:54:04;41.47;;;14.67;;
21266;SDS011;10791;53.108;18.326;2023-11-19T02:59:07;20.43;;;11.00;;
21266;SDS011;10791;53.108;18.326;2023-11-19T03:04:18;23.47;;;9.50;;
21266;SDS011;10791;53.108;18.326;2023-11-19T03:09:22;26.87;;;10.70;;
21266;SDS011;10791;53.108;18.326;2023-11-19T03:14:27;17.13;;;9.97;;
21266;SDS011;10791;53.108;18.326;2023-11-19T03:19:30;19.70;;;10.37;;
21266;SDS011;10791;53.108;18.326;2023-11-19T03:24:33;24.63;;;11.37;;
21266;SDS011;10791;53.108;18.326;2023-11-19T03:29:36;31.27;;;11.63;;
21266;SDS011;10791;53.108;18.326;2023-11-19T03:34:40;25.97;;;12.70;;
21266;SDS011;10791;53.108;18.326;2023-11-19T03:39:44;26.27;;;11.53;;
21266;SDS011;10791;53.108;18.326;2023-11-19T03:44:47;23.90;;;12.40;;
21266;SDS011;10791;53.108;18.326;2023-11-19T03:49:52;25.70;;;11.33;;
21266;SDS011;10791;53.108;18.326;2023-11-19T03:54:55;20.60;;;10.13;;
21266;SDS011;10791;53.108;18.326;2023-11-19T04:00:00;23.93;;;11.30;;
21266;SDS011;10791;53.108;18.326;2023-11-19T04:05:08;22.20;;;10.97;;
21266;SDS011;10791;53.108;18.326;2023-11-19T04:10:12;13.20;;;8.00;;
21266;SDS011;10791;53.108;18.326;2023-11-19T04:15:17;23.57;;;8.93;;
21266;SDS011;10791;53.108;18.326;2023-11-19T04:20:20;21.47;;;8.17;;
21266;SDS011;10791;53.108;18.326;2023-11-19T04:25:24;14.13;;;7.47;;
21266;SDS011;10791;53.108;18.326;2023-11-19T04:30:28;14.20;;;7.33;;
21266;SDS011;10791;53.108;18.326;2023-11-19T04:35:34;17.57;;;7.37;;
21266;SDS011;10791;53.108;18.326;2023-11-19T04:40:38;12.00;;;7.30;;
21266;SDS011;10791;53.108;18.326;2023-11-19T04:45:41;15.67;;;8.03;;
21266;SDS011;10791;53.108;18.326;2023-11-19T04:50:45;21.37;;;8.50;;
21266;SDS011;10791;53.108;18.326;2023-11-19T04:55:48;13.83;;;7.17;;
21266;SDS011;10791;53.108;18.326;2023-11-19T05:00:51;5.57;;;3.17;;
21266;SDS011;10791;53.108;18.326;2023-11-19T05:05:55;17.83;;;8.57;;
21266;SDS011;10791;53.108;18.326;2023-11-19T05:10:59;21.67;;;9.57;;
21266;SDS011;10791;53.108;18.326;2023-11-19T05:16:03;9.40;;;6.53;;
21266;SDS011;10791;53.108;18.326;2023-11-19T05:21:06;14.73;;;9.03;;
21266;SDS011;10791;53.108;18.326;2023-11-19T05:26:16;18.90;;;6.63;;
21266;SDS011;10791;53.108;18.326;2023-11-19T05:31:21;16.50;;;7.60;;
21266;SDS011;10791;53.108;18.326;2023-11-19T05:36:24;18.17;;;9.30;;
21266;SDS011;10791;53.108;18.326;2023-11-19T05:41:27;14.13;;;7.33;;
21266;SDS011;10791;53.108;18.326;2023-11-19T05:46:31;13.73;;;7.17;;
21266;SDS011;10791;53.108;18.326;2023-11-19T05:51:38;10.07;;;4.87;;
21266;SDS011;10791;53.108;18.326;2023-11-19T05:56:42;12.27;;;6.97;;
21266;SDS011;10791;53.108;18.326;2023-11-19T06:01:51;7.10;;;5.00;;
21266;SDS011;10791;53.108;18.326;2023-11-19T06:06:54;16.20;;;7.27;;
21266;SDS011;10791;53.108;18.326;2023-11-19T06:11:57;15.03;;;7.80;;
21266;SDS011;10791;53.108;18.326;2023-11-19T06:17:01;15.13;;;7.60;;
21266;SDS011;10791;53.108;18.326;2023-11-19T06:22:04;13.43;;;7.23;;
21266;SDS011;10791;53.108;18.326;2023-11-19T06:27:07;15.87;;;8.43;;
21266;SDS011;10791;53.108;18.326;2023-11-19T06:32:11;12.27;;;6.33;;
21266;SDS011;10791;53.108;18.326;2023-11-19T06:37:16;11.90;;;6.00;;
21266;SDS011;10791;53.108;18.326;2023-11-19T06:42:20;16.67;;;8.07;;
21266;SDS011;10791;53.108;18.326;2023-11-19T06:47:26;14.10;;;5.37;;
21266;SDS011;10791;53.108;18.326;2023-11-19T06:52:31;17.03;;;8.57;;
21266;SDS011;10791;53.108;18.326;2023-11-19T06:57:34;11.43;;;6.07;;
21266;SDS011;10791;53.108;18.326;2023-11-19T07:02:37;13.23;;;6.10;;
21266;SDS011;10791;53.108;18.326;2023-11-19T07:07:42;12.97;;;6.50;;
21266;SDS011;10791;53.108;18.326;2023-11-19T07:12:45;16.27;;;7.27;;
21266;SDS011;10791;53.108;18.326;2023-11-19T07:17:48;12.27;;;5.50;;
21266;SDS011;10791;53.108;18.326;2023-11-19T07:23:03;11.43;;;6.00;;
21266;SDS011;10791;53.108;18.326;2023-11-19T07:28:07;18.87;;;8.23;;
21266;SDS011;10791;53.108;18.326;2023-11-19T07:33:10;20.43;;;8.07;;
21266;SDS011;10791;53.108;18.326;2023-11-19T07:38:14;15.73;;;7.63;;
21266;SDS011;10791;53.108;18.326;2023-11-19T07:43:18;14.63;;;6.60;;
21266;SDS011;10791;53.108;18.326;2023-11-19T07:48:22;13.10;;;7.53;;
21266;SDS011;10791;53.108;18.326;2023-11-19T07:53:27;18.93;;;8.87;;
21266;SDS011;10791;53.108;18.326;2023-11-19T07:58:30;15.37;;;7.57;;
21266;SDS011;10791;53.108;18.326;2023-11-19T08:03:34;19.73;;;10.03;;
21266;SDS011;10791;53.108;18.326;2023-11-19T08:08:37;16.17;;;7.93;;
21266;SDS011;10791;53.108;18.326;2023-11-19T08:13:41;23.53;;;9.07;;
21266;SDS011;10791;53.108;18.326;2023-11-19T08:18:45;22.53;;;8.33;;
21266;SDS011;10791;53.108;18.326;2023-11-19T08:23:49;19.07;;;7.97;;
21266;SDS011;10791;53.108;18.326;2023-11-19T08:28:53;16.63;;;7.70;;
21266;SDS011;10791;53.108;18.326;2023-11-19T08:33:56;14.97;;;7.47;;
21266;SDS011;10791;53.108;18.326;2023-11-19T08:39:00;14.00;;;7.27;;
21266;SDS011;10791;53.108;18.326;2023-11-19T08:44:04;11.57;;;6.77;;
21266;SDS011;10791;53.108;18.326;2023-11-19T08:49:08;20.67;;;7.83;;
21266;SDS011;10791;53.108;18.326;2023-11-19T08:54:11;19.57;;;8.43;;
21266;SDS011;10791;53.108;18.326;2023-11-19T08:59:15;15.67;;;6.67;;
21266;SDS011;10791;53.108;18.326;2023-11-19T09:04:19;15.27;;;7.93;;
21266;SDS011;10791;53.108;18.326;2023-11-19T09:09:26;19.33;;;10.03;;
21266;SDS011;10791;53.108;18.326;2023-11-19T09:14:29;14.33;;;8.17;;
21266;SDS011;10791;53.108;18.326;2023-11-19T09:19:33;9.63;;;5.70;;
21266;SDS011;10791;53.108;18.326;2023-11-19T09:24:38;21.00;;;9.97;;
21266;SDS011;10791;53.108;18.326;2023-11-19T09:29:42;16.00;;;10.77;;
21266;SDS011;10791;53.108;18.326;2023-11-19T09:34:45;21.57;;;10.00;;
21266;SDS011;10791;53.108;18.326;2023-11-19T09:39:49;20.73;;;9.50;;
21266;SDS011;10791;53.108;18.326;2023-11-19T09:44:53;18.97;;;9.23;;
21266;SDS011;10791;53.108;18.326;2023-11-19T09:49:58;15.50;;;7.90;;
21266;SDS011;10791;53.108;18.326;2023-11-19T09:55:02;17.90;;;8.80;;
21266;SDS011;10791;53.108;18.326;2023-11-19T10:00:06;15.40;;;8.50;;
21266;SDS011;10791;53.108;18.326;2023-11-19T10:05:12;20.30;;;9.30;;
21266;SDS011;10791;53.108;18.326;2023-11-19T10:10:18;20.00;;;8.80;;
21266;SDS011;10791;53.108;18.326;2023-11-19T10:15:25;16.97;;;7.37;;
21266;SDS011;10791;53.108;18.326;2023-11-19T10:20:35;16.37;;;8.97;;
21266;SDS011;10791;53.108;18.326;2023-11-19T10:25:39;20.43;;;9.63;;
21266;SDS011;10791;53.108;18.326;2023-11-19T10:30:43;26.10;;;11.97;;
21266;SDS011;10791;53.108;18.326;2023-11-19T10:35:56;19.43;;;9.23;;
21266;SDS011;10791;53.108;18.326;2023-11-19T10:41:04;28.13;;;9.60;;
21266;SDS011;10791;53.108;18.326;2023-11-19T10:46:11;18.93;;;9.50;;
21266;SDS011;10791;53.108;18.326;2023-11-19T10:51:19;16.43;;;6.93;;
21266;SDS011;10791;53.108;18.326;2023-11-19T10:56:26;23.23;;;9.00;;
21266;SDS011;10791;53.108;18.326;2023-11-19T11:01:35;19.93;;;10.27;;
21266;SDS011;10791;53.108;18.326;2023-11-19T11:06:46;19.80;;;9.07;;
21266;SDS011;10791;53.108;18.326;2023-11-19T11:11:51;27.63;;;11.60;;
21266;SDS011;10791;53.108;18.326;2023-11-19T11:16:55;13.47;;;7.23;;
21266;SDS011;10791;53.108;18.326;2023-11-19T11:22:01;19.03;;;9.47;;
21266;SDS011;10791;53.108;18.326;2023-11-19T11:27:43;19.33;;;9.03;;
21266;SDS011;10791;53.108;18.326;2023-11-19T11:38:08;19.23;;;9.33;;
21266;SDS011;10791;53.108;18.326;2023-11-19T11:48:47;20.00;;;8.97;;
21266;SDS011;10791;53.108;18.326;2023-11-19T11:53:52;23.17;;;8.40;;
21266;SDS011;10791;53.108;18.326;2023-11-19T11:58:56;16.90;;;7.80;;
21266;SDS011;10791;53.108;18.326;2023-11-19T12:04:04;22.30;;;10.93;;
21266;SDS011;10791;53.108;18.326;2023-11-19T12:09:08;21.43;;;10.27;;
21266;SDS011;10791;53.108;18.326;2023-11-19T12:14:12;28.80;;;10.70;;
21266;SDS011;10791;53.108;18.326;2023-11-19T12:19:15;24.17;;;10.73;;
21266;SDS011;10791;53.108;18.326;2023-11-19T12:24:21;30.87;;;12.63;;
21266;SDS011;10791;53.108;18.326;2023-11-19T12:29:25;23.63;;;9.30;;
21266;SDS011;10791;53.108;18.326;2023-11-19T12:34:29;22.23;;;10.13;;
21266;SDS011;10791;53.108;18.326;2023-11-19T12:39:33;20.67;;;9.63;;
21266;SDS011;10791;53.108;18.326;2023-11-19T12:44:37;10.13;;;4.93;;
21266;SDS011;10791;53.108;18.326;2023-11-19T12:49:40;20.00;;;7.83;;
21266;SDS011;10791;53.108;18.326;2023-11-19T12:54:44;18.97;;;10.10;;
21266;SDS011;10791;53.108;18.326;2023-11-19T12:59:55;21.77;;;10.17;;
21266;SDS011;10791;53.108;18.326;2023-11-19T13:05:19;18.87;;;8.70;;
21266;SDS011;10791;53.108;18.326;2023-11-19T13:10:27;26.07;;;10.13;;
21266;SDS011;10791;53.108;18.326;2023-11-19T13:15:31;20.97;;;10.47;;
21266;SDS011;10791;53.108;18.326;2023-11-19T13:20:36;20.30;;;9.00;;
21266;SDS011;10791;53.108;18.326;2023-11-19T13:25:41;12.13;;;6.00;;
21266;SDS011;10791;53.108;18.326;2023-11-19T13:30:47;20.07;;;9.33;;
21266;SDS011;10791;53.108;18.326;2023-11-19T13:35:51;19.90;;;6.70;;
21266;SDS011;10791;53.108;18.326;2023-11-19T13:40:55;19.70;;;9.43;;
21266;SDS011;10791;53.108;18.326;2023-11-19T13:45:59;20.37;;;9.73;;
21266;SDS011;10791;53.108;18.326;2023-11-19T13:51:02;18.23;;;8.00;;
21266;SDS011;10791;53.108;18.326;2023-11-19T13:56:07;22.53;;;10.03;;
21266;SDS011;10791;53.108;18.326;2023-11-19T14:01:12;15.00;;;7.63;;
21266;SDS011;10791;53.108;18.326;2023-11-19T14:06:16;23.23;;;10.70;;
21266;SDS011;10791;53.108;18.326;2023-11-19T14:11:21;14.30;;;6.77;;
21266;SDS011;10791;53.108;18.326;2023-11-19T14:16:28;23.23;;;8.50;;
21266;SDS011;10791;53.108;18.326;2023-11-19T14:21:32;17.13;;;8.07;;
21266;SDS011;10791;53.108;18.326;2023-11-19T14:26:37;22.50;;;8.60;;
21266;SDS011;10791;53.108;18.326;2023-11-19T14:31:41;14.00;;;7.20;;
21266;SDS011;10791;53.108;18.326;2023-11-19T14:36:45;17.53;;;9.07;;
21266;SDS011;10791;53.108;18.326;2023-11-19T14:41:50;24.33;;;10.23;;
21266;SDS011;10791;53.108;18.326;2023-11-19T14:46:55;17.40;;;8.30;;
21266;SDS011;10791;53.108;18.326;2023-11-19T14:52:02;15.27;;;7.67;;
21266;SDS011;10791;53.108;18.326;2023-11-19T14:57:13;22.20;;;8.03;;
21266;SDS011;10791;53.108;18.326;2023-11-19T15:02:17;21.63;;;9.20;;
21266;SDS011;10791;53.108;18.326;2023-11-19T15:07:21;13.27;;;7.00;;
21266;SDS011;10791;53.108;18.326;2023-11-19T15:12:26;21.10;;;7.63;;
21266;SDS011;10791;53.108;18.326;2023-11-19T15:17:32;14.03;;;6.53;;
21266;SDS011;10791;53.108;18.326;2023-11-19T15:22:36;15.97;;;7.73;;
21266;SDS011;10791;53.108;18.326;2023-11-19T15:27:40;17.43;;;7.93;;
21266;SDS011;10791;53.108;18.326;2023-11-19T15:32:44;18.27;;;8.10;;
21266;SDS011;10791;53.108;18.326;2023-11-19T15:37:49;14.77;;;6.93;;
21266;SDS011;10791;53.108;18.326;2023-11-19T15:42:54;19.03;;;7.27;;
21266;SDS011;10791;53.108;18.326;2023-11-19T15:48:03;16.73;;;8.03;;
21266;SDS011;10791;53.108;18.326;2023-11-19T15:53:09;23.67;;;8.37;;
21266;SDS011;10791;53.108;18.326;2023-11-19T15:58:15;15.23;;;8.07;;
21266;SDS011;10791;53.108;18.326;2023-11-19T16:03:21;20.07;;;10.47;;
21266;SDS011;10791;53.108;18.326;2023-11-19T16:08:26;25.67;;;8.90;;
21266;SDS011;10791;53.108;18.326;2023-11-19T16:13:31;18.53;;;7.67;;
21266;SDS011;10791;53.108;18.326;2023-11-19T16:18:35;14.50;;;6.67;;
21266;SDS011;10791;53.108;18.326;2023-11-19T16:23:40;13.70;;;6.67;;
21266;SDS011;10791;53.108;18.326;2023-11-19T16:28:45;20.47;;;6.63;;
21266;SDS011;10791;53.108;18.326;2023-11-19T16:33:50;22.93;;;7.73;;
21266;SDS011;10791;53.108;18.326;2023-11-19T16:38:54;20.90;;;7.50;;
21266;SDS011;10791;53.108;18.326;2023-11-19T16:44:18;14.47;;;6.90;;
21266;SDS011;10791;53.108;18.326;2023-11-19T16:49:21;20.40;;;7.53;;
21266;SDS011;10791;53.108;18.326;2023-11-19T16:54:25;21.67;;;7.63;;
21266;SDS011;10791;53.108;18.326;2023-11-19T16:59:29;11.50;;;5.20;;
21266;SDS011;10791;53.108;18.326;2023-11-19T17:04:33;14.23;;;7.53;;
21266;SDS011;10791;53.108;18.326;2023-11-19T17:09:38;15.43;;;8.87;;
21266;SDS011;10791;53.108;18.326;2023-11-19T17:14:45;10.57;;;6.33;;
21266;SDS011;10791;53.108;18.326;2023-11-19T17:19:49;13.03;;;5.77;;
21266;SDS011;10791;53.108;18.326;2023-11-19T17:24:53;8.70;;;5.63;;
21266;SDS011;10791;53.108;18.326;2023-11-19T17:29:58;15.33;;;7.03;;
21266;SDS011;10791;53.108;18.326;2023-11-19T17:35:02;15.03;;;7.07;;
21266;SDS011;10791;53.108;18.326;2023-11-19T17:40:06;12.63;;;6.43;;
21266;SDS011;10791;53.108;18.326;2023-11-19T17:45:12;12.97;;;7.03;;
21266;SDS011;10791;53.108;18.326;2023-11-19T17:50:17;10.23;;;4.97;;
21266;SDS011;10791;53.108;18.326;2023-11-19T17:55:26;14.47;;;7.00;;
21266;SDS011;10791;53.108;18.326;2023-11-19T18:00:30;15.87;;;7.33;;
21266;SDS011;10791;53.108;18.326;2023-11-19T18:05:34;15.00;;;6.77;;
21266;SDS011;10791;53.108;18.326;2023-11-19T18:10:38;12.73;;;8.10;;
21266;SDS011;10791;53.108;18.326;2023-11-19T18:15:42;16.03;;;6.63;;
21266;SDS011;10791;53.108;18.326;2023-11-19T18:20:47;21.10;;;8.13;;
21266;SDS011;10791;53.108;18.326;2023-11-19T18:25:50;14.03;;;6.70;;
21266;SDS011;10791;53.108;18.326;2023-11-19T18:30:55;17.47;;;7.97;;
21266;SDS011;10791;53.108;18.326;2023-11-19T18:36:02;13.57;;;7.70;;
21266;SDS011;10791;53.108;18.326;2023-11-19T18:41:07;17.43;;;8.17;;
21266;SDS011;10791;53.108;18.326;2023-11-19T18:46:12;11.73;;;6.63;;
21266;SDS011;10791;53.108;18.326;2023-11-19T18:51:16;9.00;;;5.07;;
21266;SDS011;10791;53.108;18.326;2023-11-19T18:56:20;15.13;;;6.47;;
21266;SDS011;10791;53.108;18.326;2023-11-19T19:01:24;21.27;;;7.50;;
21266;SDS011;10791;53.108;18.326;2023-11-19T19:06:32;12.80;;;6.10;;
21266;SDS011;10791;53.108;18.326;2023-11-19T19:11:36;17.60;;;7.83;;
21266;SDS011;10791;53.108;18.326;2023-11-19T19:16:40;11.57;;;6.47;;
21266;SDS011;10791;53.108;18.326;2023-11-19T19:21:43;13.37;;;6.80;;
21266;SDS011;10791;53.108;18.326;2023-11-19T19:26:47;13.63;;;6.63;;
21266;SDS011;10791;53.108;18.326;2023-11-19T19:31:51;30.43;;;9.83;;
21266;SDS011;10791;53.108;18.326;2023-11-19T19:36:55;11.17;;;6.30;;
21266;SDS011;10791;53.108;18.326;2023-11-19T19:42:00;16.40;;;7.73;;
21266;SDS011;10791;53.108;18.326;2023-11-19T19:47:06;15.40;;;8.90;;
21266;SDS011;10791;53.108;18.326;2023-11-19T19:52:10;13.23;;;6.60;;
21266;SDS011;10791;53.108;18.326;2023-11-19T19:57:14;16.30;;;6.93;;
21266;SDS011;10791;53.108;18.326;2023-11-19T20:02:18;12.13;;;6.50;;
21266;SDS011;10791;53.108;18.326;2023-11-19T20:07:22;16.40;;;8.00;;
21266;SDS011;10791;53.108;18.326;2023-11-19T20:12:26;13.50;;;7.37;;
21266;SDS011;10791;53.108;18.326;2023-11-19T20:17:33;14.87;;;7.53;;
21266;SDS011;10791;53.108;18.326;2023-11-19T20:22:38;19.03;;;8.60;;
21266;SDS011;10791;53.108;18.326;2023-11-19T20:27:43;16.80;;;7.20;;
21266;SDS011;10791;53.108;18.326;2023-11-19T20:32:46;15.67;;;7.50;;
21266;SDS011;10791;53.108;18.326;2023-11-19T20:37:51;19.60;;;7.73;;
21266;SDS011;10791;53.108;18.326;2023-11-19T20:42:55;13.60;;;5.97;;
21266;SDS011;10791;53.108;18.326;2023-11-19T20:47:59;14.03;;;7.60;;
21266;SDS011;10791;53.108;18.326;2023-11-19T20:53:03;11.70;;;5.90;;
21266;SDS011;10791;53.108;18.326;2023-11-19T20:58:06;17.33;;;7.00;;
21266;SDS011;10791;53.108;18.326;2023-11-19T21:03:14;18.80;;;6.50;;
21266;SDS011;10791;53.108;18.326;2023-11-19T21:08:18;11.37;;;6.67;;
21266;SDS011;10791;53.108;18.326;2023-11-19T21:13:23;9.57;;;5.50;;
21266;SDS011;10791;53.108;18.326;2023-11-19T21:18:27;12.07;;;5.90;;
21266;SDS011;10791;53.108;18.326;2023-11-19T21:23:32;13.20;;;6.90;;
21266;SDS011;10791;53.108;18.326;2023-11-19T21:28:37;14.20;;;6.67;;
21266;SDS011;10791;53.108;18.326;2023-11-19T21:33:41;18.90;;;6.27;;
21266;SDS011;10791;53.108;18.326;2023-11-19T21:38:45;12.80;;;7.00;;
21266;SDS011;10791;53.108;18.326;2023-11-19T21:43:53;14.63;;;5.87;;
21266;SDS011;10791;53.108;18.326;2023-11-19T21:49:00;17.07;;;8.20;;
21266;SDS011;10791;53.108;18.326;2023-11-19T21:54:04;17.93;;;8.23;;
21266;SDS011;10791;53.108;18.326;2023-11-19T21:59:08;18.13;;;7.77;;
21266;SDS011;10791;53.108;18.326;2023-11-19T22:04:11;13.93;;;6.40;;
21266;SDS011;10791;53.108;18.326;2023-11-19T22:09:15;13.17;;;5.40;;
21266;SDS011;10791;53.108;18.326;2023-11-19T22:14:19;7.13;;;4.23;;
21266;SDS011;10791;53.108;18.326;2023-11-19T22:19:24;14.53;;;6.13;;
21266;SDS011;10791;53.108;18.326;2023-11-19T22:24:28;9.87;;;5.67;;
21266;SDS011;10791;53.108;18.326;2023-11-19T22:29:31;11.10;;;5.90;;
21266;SDS011;10791;53.108;18.326;2023-11-19T22:34:35;7.87;;;4.87;;
21266;SDS011;10791;53.108;18.326;2023-11-19T22:39:39;8.60;;;4.97;;
21266;SDS011;10791;53.108;18.326;2023-11-19T22:44:42;8.50;;;4.70;;
21266;SDS011;10791;53.108;18.326;2023-11-19T22:49:46;12.17;;;5.07;;
21266;SDS011;10791;53.108;18.326;2023-11-19T22:54:49;13.00;;;4.03;;
21266;SDS011;10791;53.108;18.326;2023-11-19T22:59:52;9.03;;;4.87;;
21266;SDS011;10791;53.108;18.326;2023-11-19T23:04:55;12.20;;;5.30;;
21266;SDS011;10791;53.108;18.326;2023-11-19T23:09:58;8.90;;;3.83;;
21266;SDS011;10791;53.108;18.326;2023-11-19T23:15:04;9.47;;;4.70;;
21266;SDS011;10791;53.108;18.326;2023-11-19T23:20:10;8.70;;;4.27;;
21266;SDS011;10791;53.108;18.326;2023-11-19T23:25:15;8.70;;;4.37;;
21266;SDS011;10791;53.108;18.326;2023-11-19T23:30:19;10.63;;;4.50;;
21266;SDS011;10791;53.108;18.326;2023-11-19T23:35:22;7.57;;;4.60;;
21266;SDS011;10791;53.108;18.326;2023-11-19T23:40:26;9.10;;;4.77;;
21266;SDS011;10791;53.108;18.326;2023-11-19T23:45:29;9.77;;;5.40;;
21266;SDS011;10791;53.108;18.326;2023-11-19T23:50:34;15.07;;;6.67;;
21266;SDS011;10791;53.108;18.326;2023-11-19T23:55:38;9.83;;;5.47;;
